createdAt,value
2018-12-09T00:02:01.004Z,99500.36
2018-12-09T00:04:30.147Z,99499.19
2018-12-09T00:06:59.241Z,99496.16
2018-12-09T00:09:28.356Z,99503.20
2018-12-09T00:11:57.489Z,99499.42
2018-12-09T00:14:26.592Z,99495.95
2018-12-09T00:16:55.680Z,99492.42
2018-12-09T00:19:24.788Z,99495.62
2018-12-09T00:21:53.885Z,99494.39
2018-12-09T00:24:23.004Z,99500.11
2018-12-09T00:26:52.101Z,99495.16
2018-12-09T00:29:21.216Z,99495.64
2018-12-09T00:31:50.306Z,99494.75
2018-12-09T00:34:19.408Z,99494.81
2018-12-09T00:36:48.537Z,99490.44
2018-12-09T00:39:17.639Z,99492.60
2018-12-09T00:41:46.734Z,99483.22
2018-12-09T00:44:15.845Z,99482.34
2018-12-09T00:46:44.977Z,99475.05
2018-12-09T00:49:14.103Z,99470.80
2018-12-09T00:51:43.226Z,99474.30
2018-12-09T00:54:12.357Z,99471.59
2018-12-09T00:56:41.466Z,99466.95
2018-12-09T00:59:10.577Z,99464.66
2018-12-09T01:01:39.681Z,99464.11
2018-12-09T01:04:08.770Z,99465.14
2018-12-09T01:06:37.879Z,99461.23
2018-12-09T01:09:07.341Z,99461.28
2018-12-09T01:11:36.454Z,99459.82
2018-12-09T01:14:05.584Z,99446.05
2018-12-09T01:16:34.693Z,99447.38
2018-12-09T01:19:03.817Z,99441.44
2018-12-09T01:21:32.916Z,99439.49
2018-12-09T01:24:02.010Z,99439.19
2018-12-09T01:26:31.561Z,99437.23
2018-12-09T01:29:00.670Z,99434.36
2018-12-09T01:31:29.769Z,99431.30
2018-12-09T01:33:58.888Z,99430.85
2018-12-09T01:36:28.499Z,99425.26
2018-12-09T01:38:57.584Z,99425.75
2018-12-09T01:41:26.700Z,99429.32
2018-12-09T01:43:55.845Z,99427.16
2018-12-09T01:46:24.966Z,99432.74
2018-12-09T01:48:54.149Z,99437.36
2018-12-09T01:51:23.310Z,99437.22
2018-12-09T01:54:23.148Z,99438.33
2018-12-09T01:56:52.277Z,99437.55
2018-12-09T01:59:21.417Z,99432.50
2018-12-09T02:01:50.546Z,99429.14
2018-12-09T02:04:20.220Z,99431.22
2018-12-09T02:06:49.339Z,99428.56
2018-12-09T02:09:18.433Z,99428.30
2018-12-09T02:11:47.542Z,99430.91
2018-12-09T02:14:16.661Z,99432.38
2018-12-09T02:16:45.813Z,99439.14
2018-12-09T02:19:23.102Z,99433.88
2018-12-09T02:21:52.510Z,99426.82
2018-12-09T02:24:22.203Z,99424.38
2018-12-09T02:26:51.349Z,99427.94
2018-12-09T02:29:20.466Z,99425.50
2018-12-09T02:31:49.569Z,99425.43
2018-12-09T02:34:18.676Z,99419.85
2018-12-09T02:36:47.757Z,99419.37
2018-12-09T02:39:16.865Z,99420.61
2018-12-09T02:41:45.977Z,99416.45
2018-12-09T02:44:15.085Z,99413.50
2018-12-09T02:46:44.208Z,99413.72
2018-12-09T02:49:13.340Z,99411.27
2018-12-09T02:51:42.470Z,99416.84
2018-12-09T02:54:11.586Z,99414.41
2018-12-09T02:56:40.922Z,99414.13
2018-12-09T02:59:10.248Z,99414.45
2018-12-09T03:01:39.393Z,99412.36
2018-12-09T03:04:08.554Z,99413.20
2018-12-09T03:06:38.204Z,99424.53
2018-12-09T03:09:09.744Z,99416.20
2018-12-09T03:12:41.942Z,99415.51
2018-12-09T03:15:11.062Z,99421.45
2018-12-09T03:17:40.203Z,99418.39
2018-12-09T03:20:09.305Z,99418.97
2018-12-09T03:22:38.506Z,99419.64
2018-12-09T03:25:07.675Z,99415.88
2018-12-09T03:27:36.784Z,99421.05
2018-12-09T03:30:06.309Z,99421.05
2018-12-09T03:32:35.441Z,99428.04
2018-12-09T03:35:04.777Z,99422.42
2018-12-09T03:37:33.873Z,99422.42
2018-12-09T03:40:02.975Z,99425.08
2018-12-09T03:42:32.096Z,99426.71
2018-12-09T03:45:01.188Z,99426.71
2018-12-09T03:47:30.313Z,99428.39
2018-12-09T03:49:59.461Z,99431.39
2018-12-09T03:52:28.882Z,99440.34
2018-12-09T03:54:57.989Z,99435.92
2018-12-09T03:57:27.097Z,99435.03
2018-12-09T03:59:56.185Z,99429.86
2018-12-09T04:02:25.305Z,99424.83
2018-12-09T04:04:54.417Z,99427.56
2018-12-09T04:07:23.543Z,99429.42
2018-12-09T04:09:52.638Z,99432.08
2018-12-09T04:12:21.860Z,99426.45
2018-12-09T04:14:51.173Z,99432.08
2018-12-09T04:17:20.309Z,99437.55
2018-12-09T04:19:49.451Z,99435.39
2018-12-09T04:22:18.573Z,99435.44
2018-12-09T04:24:47.685Z,99432.52
2018-12-09T04:27:16.809Z,99440.75
2018-12-09T04:29:45.905Z,99444.52
2018-12-09T04:32:15.026Z,99448.84
2018-12-09T04:34:44.111Z,99444.59
2018-12-09T04:37:13.349Z,99443.13
2018-12-09T04:39:42.465Z,99448.70
2018-12-09T04:42:11.583Z,99450.34
2018-12-09T04:44:40.694Z,99449.06
2018-12-09T04:47:09.828Z,99442.03
2018-12-09T04:49:38.924Z,99441.73
2018-12-09T04:52:08.068Z,99446.41
2018-12-09T04:54:37.164Z,99437.13
2018-12-09T04:57:06.251Z,99445.09
2018-12-09T04:59:35.417Z,99448.94
2018-12-09T05:02:04.538Z,99451.02
2018-12-09T05:04:33.657Z,99450.88
2018-12-09T05:07:02.772Z,99449.50
2018-12-09T05:09:31.893Z,99449.91
2018-12-09T05:12:01.025Z,99446.00
2018-12-09T05:14:30.117Z,99448.70
2018-12-09T05:16:59.285Z,99449.12
2018-12-09T05:19:28.413Z,99446.73
2018-12-09T05:21:57.542Z,99448.45
2018-12-09T05:24:26.650Z,99444.19
2018-12-09T05:26:55.773Z,99440.81
2018-12-09T05:29:24.904Z,99445.41
2018-12-09T05:31:54.073Z,99444.35
2018-12-09T05:34:23.193Z,99444.95
2018-12-09T05:36:52.305Z,99440.72
2018-12-09T05:39:21.451Z,99439.32
2018-12-09T05:41:50.570Z,99445.16
2018-12-09T05:44:20.092Z,99454.54
2018-12-09T05:46:49.233Z,99450.23
2018-12-09T05:49:18.355Z,99449.57
2018-12-09T05:51:47.456Z,99450.23
2018-12-09T05:54:16.541Z,99455.06
2018-12-09T05:56:45.669Z,99455.38
2018-12-09T05:59:14.808Z,99460.49
2018-12-09T06:01:43.926Z,99458.28
2018-12-09T06:04:13.050Z,99460.84
2018-12-09T06:06:42.706Z,99456.14
2018-12-09T06:09:11.826Z,99453.76
2018-12-09T06:11:40.932Z,99453.48
2018-12-09T06:14:10.053Z,99457.22
2018-12-09T06:16:39.190Z,99460.61
2018-12-09T06:19:08.285Z,99458.35
2018-12-09T06:21:37.427Z,99449.65
2018-12-09T06:24:06.547Z,99451.95
2018-12-09T06:26:35.726Z,99456.23
2018-12-09T06:29:04.872Z,99453.16
2018-12-09T06:31:34.001Z,99456.24
2018-12-09T06:34:03.119Z,99451.31
2018-12-09T06:36:32.229Z,99447.34
2018-12-09T06:39:01.354Z,99446.70
2018-12-09T06:41:30.689Z,99445.98
2018-12-09T06:43:59.800Z,99446.58
2018-12-09T06:46:28.952Z,99440.55
2018-12-09T06:48:58.163Z,99439.20
2018-12-09T06:51:27.281Z,99436.00
2018-12-09T06:53:56.397Z,99437.47
2018-12-09T06:56:25.558Z,99439.79
2018-12-09T06:58:54.729Z,99440.11
2018-12-09T07:01:23.912Z,99449.51
2018-12-09T07:03:53.057Z,99444.60
2018-12-09T07:06:22.257Z,99439.50
2018-12-09T07:08:51.397Z,99449.36
2018-12-09T07:11:20.533Z,99441.72
2018-12-09T07:13:49.662Z,99447.69
2018-12-09T07:16:18.791Z,99444.72
2018-12-09T07:18:47.900Z,99443.56
2018-12-09T07:21:17.032Z,99449.06
2018-12-09T07:23:46.157Z,99451.95
2018-12-09T07:26:15.271Z,99446.48
2018-12-09T07:28:44.734Z,99450.53
2018-12-09T07:31:13.868Z,99445.89
2018-12-09T07:33:43.031Z,99444.96
2018-12-09T07:36:12.142Z,99446.31
2018-12-09T07:38:41.275Z,99446.55
2018-12-09T07:41:10.393Z,99437.72
2018-12-09T07:43:39.518Z,99427.55
2018-12-09T07:46:08.629Z,99428.14
2018-12-09T07:48:37.754Z,99427.50
2018-12-09T07:51:06.967Z,99423.89
2018-12-09T07:53:36.100Z,99425.22
2018-12-09T07:56:05.240Z,99419.92
2018-12-09T07:58:34.390Z,99412.34
2018-12-09T08:01:03.504Z,99410.12
2018-12-09T08:03:32.613Z,99408.98
2018-12-09T08:06:01.741Z,99409.83
2018-12-09T08:08:30.856Z,99407.20
2018-12-09T08:10:59.936Z,99410.28
2018-12-09T08:13:29.032Z,99409.21
2018-12-09T08:15:58.141Z,99403.75
2018-12-09T08:18:27.271Z,99397.82
2018-12-09T08:20:56.399Z,99393.52
2018-12-09T08:23:25.512Z,99391.41
2018-12-09T08:25:54.634Z,99392.61
2018-12-09T08:28:23.762Z,99381.59
2018-12-09T08:30:52.903Z,99381.10
2018-12-09T08:33:22.016Z,99386.13
2018-12-09T08:35:51.125Z,99380.77
2018-12-09T08:38:20.260Z,99376.91
2018-12-09T08:40:49.384Z,99370.55
2018-12-09T08:43:18.485Z,99361.17
2018-12-09T08:45:47.598Z,99356.78
2018-12-09T08:48:16.709Z,99351.73
2018-12-09T08:50:45.840Z,99354.72
2018-12-09T08:53:14.965Z,99351.37
2018-12-09T08:55:44.205Z,99344.80
2018-12-09T08:58:13.328Z,99343.89
2018-12-09T09:00:42.474Z,99341.48
2018-12-09T09:03:11.584Z,99333.54
2018-12-09T09:05:40.694Z,99320.64
2018-12-09T09:08:09.784Z,99318.28
2018-12-09T09:10:38.878Z,99307.33
2018-12-09T09:13:08.008Z,99302.27
2018-12-09T09:15:37.113Z,99307.45
2018-12-09T09:18:06.180Z,99296.44
2018-12-09T09:20:35.284Z,99296.12
2018-12-09T09:23:04.411Z,99296.09
2018-12-09T09:25:33.551Z,99293.84
2018-12-09T09:28:02.673Z,99290.95
2018-12-09T09:30:31.812Z,99283.00
2018-12-09T09:33:00.961Z,99283.20
2018-12-09T09:35:30.059Z,99279.68
2018-12-09T09:37:59.161Z,99277.18
2018-12-09T09:40:28.274Z,99270.08
2018-12-09T09:42:57.425Z,99261.37
2018-12-09T09:45:26.642Z,99265.73
2018-12-09T09:47:55.752Z,99256.88
2018-12-09T09:50:24.859Z,99255.33
2018-12-09T09:52:53.985Z,99254.92
2018-12-09T09:55:23.094Z,99249.99
2018-12-09T09:57:52.238Z,99249.99
2018-12-09T10:00:21.343Z,99245.41
2018-12-09T10:02:50.443Z,99240.59
2018-12-09T10:05:19.544Z,99243.05
2018-12-09T10:07:48.638Z,99236.85
2018-12-09T10:10:17.853Z,99240.23
2018-12-09T10:12:46.977Z,99247.56
2018-12-09T10:15:16.166Z,99231.16
2018-12-09T10:17:45.284Z,99230.09
2018-12-09T10:20:14.478Z,99225.78
2018-12-09T10:22:43.569Z,99220.77
2018-12-09T10:25:12.723Z,99224.28
2018-12-09T10:27:41.836Z,99213.53
2018-12-09T10:30:11.037Z,99209.64
2018-12-09T10:32:40.160Z,99207.59
2018-12-09T10:35:09.265Z,99207.74
2018-12-09T10:37:38.377Z,99195.33
2018-12-09T10:40:07.668Z,99201.64
2018-12-09T10:42:36.762Z,99201.28
2018-12-09T10:45:06.420Z,99194.88
2018-12-09T10:47:35.585Z,99190.27
2018-12-09T10:50:05.325Z,99184.55
2018-12-09T10:52:34.422Z,99179.88
2018-12-09T10:55:03.530Z,99179.88
2018-12-09T10:57:32.617Z,99177.82
2018-12-09T11:00:01.710Z,99176.48
2018-12-09T11:02:30.811Z,99176.92
2018-12-09T11:04:59.986Z,99172.84
2018-12-09T11:07:29.128Z,99168.27
2018-12-09T11:09:58.298Z,99168.79
2018-12-09T11:12:27.415Z,99167.08
2018-12-09T11:14:56.537Z,99167.97
2018-12-09T11:17:26.545Z,99173.62
2018-12-09T11:19:55.718Z,99176.12
2018-12-09T11:22:24.784Z,99169.80
2018-12-09T11:24:53.881Z,99175.63
2018-12-09T11:27:22.977Z,99171.03
2018-12-09T11:29:52.094Z,99172.52
2018-12-09T11:32:21.189Z,99182.02
2018-12-09T11:34:50.329Z,99177.81
2018-12-09T11:37:19.458Z,99170.22
2018-12-09T11:39:48.553Z,99166.97
2018-12-09T11:42:17.754Z,99169.96
2018-12-09T11:44:46.882Z,99167.63
2018-12-09T11:47:15.977Z,99171.33
2018-12-09T11:49:45.097Z,99176.34
2018-12-09T11:52:15.106Z,99172.78
2018-12-09T11:54:44.221Z,99174.75
2018-12-09T11:57:13.885Z,99170.05
2018-12-09T11:59:45.103Z,99176.34
2018-12-09T12:02:20.053Z,99169.96
2018-12-09T12:04:45.349Z,99166.30
2018-12-09T12:07:14.453Z,99166.23
2018-12-09T12:09:43.561Z,99163.78
2018-12-09T12:12:12.737Z,99148.63
2018-12-09T12:14:41.841Z,99153.04
2018-12-09T12:17:10.968Z,99146.25
2018-12-09T12:19:40.116Z,99144.22
2018-12-09T12:22:09.212Z,99135.61
2018-12-09T12:24:38.305Z,99143.11
2018-12-09T12:27:07.386Z,99135.91
2018-12-09T12:29:36.496Z,99136.91
2018-12-09T12:32:05.581Z,99131.45
2018-12-09T12:35:05.491Z,99130.95
2018-12-09T12:37:34.691Z,99117.35
2018-12-09T12:40:03.877Z,99117.23
2018-12-09T12:42:32.987Z,99115.73
2018-12-09T12:45:02.134Z,99118.66
2018-12-09T12:47:31.240Z,99112.50
2018-12-09T12:50:00.405Z,99108.08
2018-12-09T12:52:29.527Z,99102.91
2018-12-09T12:54:58.658Z,99097.81
2018-12-09T12:57:28.040Z,99100.88
2018-12-09T12:59:57.177Z,99100.41
2018-12-09T13:02:26.304Z,99099.53
2018-12-09T13:04:55.426Z,99101.52
2018-12-09T13:07:24.614Z,99097.73
2018-12-09T13:09:53.733Z,99097.08
2018-12-09T13:12:22.845Z,99096.90
2018-12-09T13:14:51.970Z,99099.96
2018-12-09T13:17:21.057Z,99094.30
2018-12-09T13:19:50.186Z,99095.96
2018-12-09T13:22:19.262Z,99096.98
2018-12-09T13:24:48.389Z,99103.22
2018-12-09T13:27:17.504Z,99098.21
2018-12-09T13:29:46.617Z,99094.34
2018-12-09T13:32:15.731Z,99091.88
2018-12-09T13:34:44.869Z,99088.77
2018-12-09T13:37:14.026Z,99093.67
2018-12-09T13:39:43.154Z,99093.70
2018-12-09T13:42:12.245Z,99081.73
2018-12-09T13:44:41.370Z,99086.10
2018-12-09T13:47:10.461Z,99087.11
2018-12-09T13:49:39.554Z,99087.47
2018-12-09T13:52:08.641Z,99083.53
2018-12-09T13:54:37.842Z,99078.91
2018-12-09T13:57:06.934Z,99079.64
2018-12-09T13:59:37.045Z,99076.66
2018-12-09T14:02:06.155Z,99077.84
2018-12-09T14:04:35.260Z,99073.73
2018-12-09T14:07:04.368Z,99077.50
2018-12-09T14:09:33.482Z,99087.98
2018-12-09T14:12:02.622Z,99097.01
2018-12-09T14:14:31.740Z,99091.64
2018-12-09T14:17:00.969Z,99099.58
2018-12-09T14:19:30.116Z,99091.38
2018-12-09T14:21:59.208Z,99088.54
2018-12-09T14:24:28.462Z,99082.48
2018-12-09T14:26:57.564Z,99082.47
2018-12-09T14:29:26.842Z,99090.77
2018-12-09T14:31:56.293Z,99094.52
2018-12-09T14:34:25.427Z,99098.03
2018-12-09T14:36:56.402Z,99095.56
2018-12-09T14:39:25.706Z,99092.76
2018-12-09T14:41:54.845Z,99094.69
2018-12-09T14:44:23.977Z,99091.87
2018-12-09T14:46:53.107Z,99095.89
2018-12-09T14:49:22.240Z,99089.91
2018-12-09T14:51:51.369Z,99094.19
2018-12-09T14:54:20.684Z,99089.88
2018-12-09T14:56:49.913Z,99092.86
2018-12-09T14:59:19.013Z,99085.34
2018-12-09T15:01:48.140Z,99078.48
2018-12-09T15:04:17.245Z,99084.95
2018-12-09T15:06:46.374Z,99080.13
2018-12-09T15:09:15.497Z,99075.77
2018-12-09T15:11:44.653Z,99072.38
2018-12-09T15:14:13.749Z,99065.38
2018-12-09T15:16:42.901Z,99062.50
2018-12-09T15:19:12.020Z,99057.30
2018-12-09T15:21:41.148Z,99044.95
2018-12-09T15:24:10.269Z,99051.23
2018-12-09T15:26:39.387Z,99042.88
2018-12-09T15:29:08.524Z,99040.83
2018-12-09T15:31:37.659Z,99041.13
2018-12-09T15:34:06.798Z,99018.39
2018-12-09T15:36:35.955Z,99036.18
2018-12-09T15:39:06.485Z,99035.14
2018-12-09T15:41:35.602Z,99037.20
2018-12-09T15:44:04.728Z,99028.50
2018-12-09T15:46:33.846Z,99020.67
2018-12-09T15:49:02.957Z,99023.81
2018-12-09T15:51:32.076Z,99030.02
2018-12-09T15:54:01.445Z,99033.30
2018-12-09T15:56:30.577Z,99036.10
2018-12-09T15:58:59.668Z,99031.76
2018-12-09T16:01:28.781Z,99028.89
2018-12-09T16:03:57.889Z,99034.30
2018-12-09T16:06:27.078Z,99022.12
2018-12-09T16:08:56.150Z,99027.71
2018-12-09T16:11:25.275Z,99030.95
2018-12-09T16:13:54.386Z,99026.25
2018-12-09T16:16:23.488Z,99029.34
2018-12-09T16:18:52.583Z,99028.83
2018-12-09T16:21:21.685Z,99027.80
2018-12-09T16:23:50.823Z,99025.08
2018-12-09T16:26:19.962Z,99022.06
2018-12-09T16:28:49.090Z,99025.66
2018-12-09T16:31:18.203Z,99028.12
2018-12-09T16:33:47.308Z,99024.42
2018-12-09T16:36:16.463Z,99028.17
2018-12-09T16:38:45.594Z,99027.77
2018-12-09T16:41:14.845Z,99027.67
2018-12-09T16:43:43.973Z,99027.64
2018-12-09T16:46:13.146Z,99025.66
2018-12-09T16:48:43.317Z,99029.14
2018-12-09T16:51:12.594Z,99029.95
2018-12-09T16:53:41.734Z,99029.60
2018-12-09T16:56:10.877Z,99029.95
2018-12-09T16:58:40.012Z,99028.41
2018-12-09T17:01:09.132Z,99031.35
2018-12-09T17:03:38.266Z,99023.88
2018-12-09T17:06:07.382Z,99025.38
2018-12-09T17:08:36.586Z,99032.16
2018-12-09T17:11:05.686Z,99027.13
2018-12-09T17:13:34.813Z,99018.97
2018-12-09T17:16:03.916Z,99011.81
2018-12-09T17:18:33.045Z,99017.89
2018-12-09T17:21:02.140Z,99017.69
2018-12-09T17:23:31.356Z,99019.98
2018-12-09T17:26:00.569Z,99017.66
2018-12-09T17:28:29.691Z,99021.84
2018-12-09T17:30:58.809Z,99025.61
2018-12-09T17:33:27.925Z,99026.02
2018-12-09T17:35:57.034Z,99010.71
2018-12-09T17:38:26.212Z,99008.83
2018-12-09T17:40:55.330Z,99018.11
2018-12-09T17:43:24.423Z,99014.09
2018-12-09T17:45:53.545Z,99007.99
2018-12-09T17:48:22.668Z,98998.36
2018-12-09T17:50:51.913Z,99003.28
2018-12-09T17:53:21.158Z,99000.08
2018-12-09T17:55:50.250Z,98997.38
2018-12-09T17:58:19.350Z,98994.31
2018-12-09T18:00:48.465Z,98995.64
2018-12-09T18:03:17.589Z,98990.58
2018-12-09T18:05:46.721Z,98990.19
2018-12-09T18:08:15.832Z,98986.00
2018-12-09T18:10:44.952Z,98986.14
2018-12-09T18:13:14.138Z,98984.95
2018-12-09T18:15:43.429Z,98980.45
2018-12-09T18:18:12.638Z,98981.35
2018-12-09T18:20:41.733Z,98976.97
2018-12-09T18:23:10.853Z,98980.73
2018-12-09T18:25:40.007Z,98981.42
2018-12-09T18:28:09.153Z,98985.16
2018-12-09T18:30:38.281Z,98976.87
2018-12-09T18:33:07.846Z,98979.37
2018-12-09T18:35:37.013Z,98976.94
2018-12-09T18:38:06.337Z,98973.63
2018-12-09T18:40:36.175Z,98972.03
2018-12-09T18:43:05.482Z,98975.38
2018-12-09T18:45:36.412Z,98974.05
2018-12-09T18:48:06.769Z,98975.27
2018-12-09T18:50:38.924Z,98963.27
2018-12-09T18:53:08.034Z,98959.53
2018-12-09T18:55:37.232Z,98962.09
2018-12-09T18:58:06.346Z,98967.24
2018-12-09T19:00:35.533Z,98966.17
2018-12-09T19:03:04.694Z,98960.69
2018-12-09T19:05:33.884Z,98971.30
2018-12-09T19:08:03.357Z,98970.24
2018-12-09T19:10:34.167Z,98972.64
2018-12-09T19:13:03.389Z,98957.65
2018-12-09T19:15:32.732Z,98963.30
2018-12-09T19:18:01.909Z,98958.42
2018-12-09T19:20:31.188Z,98965.57
2018-12-09T19:23:00.378Z,98962.88
2018-12-09T19:25:29.494Z,98959.19
2018-12-09T19:27:58.614Z,98962.19
2018-12-09T19:30:27.756Z,98964.13
2018-12-09T19:32:57.901Z,98960.52
2018-12-09T19:35:27.039Z,98954.45
2018-12-09T19:37:56.155Z,98955.31
2018-12-09T19:40:25.389Z,98946.84
2018-12-09T19:42:54.516Z,98961.92
2018-12-09T19:45:23.669Z,98957.52
2018-12-09T19:47:52.812Z,98957.38
2018-12-09T19:50:21.931Z,98952.29
2018-12-09T19:52:51.158Z,98955.78
2018-12-09T19:55:51.358Z,98960.48
2018-12-09T19:58:20.485Z,98963.31
2018-12-09T20:00:49.575Z,98975.06
2018-12-09T20:03:18.698Z,98978.13
2018-12-09T20:05:47.814Z,98971.75
2018-12-09T20:08:16.961Z,98972.31
2018-12-09T20:10:46.077Z,98966.94
2018-12-09T20:13:15.219Z,98974.16
2018-12-09T20:15:44.345Z,98973.00
2018-12-09T20:18:13.500Z,98961.91
2018-12-09T20:20:42.603Z,98964.09
2018-12-09T20:23:11.733Z,98963.67
2018-12-09T20:25:40.921Z,98958.61
2018-12-09T20:28:10.061Z,98956.73
2018-12-09T20:30:39.232Z,98952.98
2018-12-09T20:33:08.344Z,98953.97
2018-12-09T20:35:37.522Z,98947.98
2018-12-09T20:38:06.658Z,98954.06
2018-12-09T20:40:35.774Z,98962.40
2018-12-09T20:43:04.916Z,98963.23
2018-12-09T20:45:34.039Z,98966.98
2018-12-09T20:48:13.233Z,98964.06
2018-12-09T20:50:36.185Z,98971.11
2018-12-09T20:53:05.343Z,98976.45
2018-12-09T20:55:34.458Z,98973.94
2018-12-09T20:58:03.599Z,98978.56
2018-12-09T21:00:32.873Z,98980.14
2018-12-09T21:03:02.050Z,98980.20
2018-12-09T21:05:31.152Z,98986.67
2018-12-09T21:08:00.258Z,98983.89
2018-12-09T21:10:29.500Z,98987.02
2018-12-09T21:13:00.240Z,98984.02
2018-12-09T21:15:29.634Z,98982.70
2018-12-09T21:17:58.775Z,98979.64
2018-12-09T21:20:27.865Z,98974.36
2018-12-09T21:22:56.976Z,98984.36
2018-12-09T21:25:26.085Z,98979.84
2018-12-09T21:27:55.198Z,98981.17
2018-12-09T21:30:24.339Z,98988.39
2018-12-09T21:32:53.468Z,98984.08
2018-12-09T21:35:22.629Z,98982.66
2018-12-09T21:37:51.758Z,98980.92
2018-12-09T21:40:20.870Z,98984.86
2018-12-09T21:42:49.981Z,98980.16
2018-12-09T21:45:19.078Z,98986.83
2018-12-09T21:47:48.213Z,98987.18
2018-12-09T21:50:17.325Z,98982.51
2018-12-09T21:52:46.454Z,98984.73
2018-12-09T21:55:15.697Z,98978.71
2018-12-09T21:57:44.817Z,98970.07
2018-12-09T22:00:13.958Z,98973.94
2018-12-09T22:02:43.062Z,98969.23
2018-12-09T22:05:12.186Z,98962.97
2018-12-09T22:07:41.318Z,98964.33
2018-12-09T22:10:10.438Z,98962.63
2018-12-09T22:12:39.629Z,98956.08
2018-12-09T22:15:08.800Z,98954.82
2018-12-09T22:17:37.982Z,98956.63
2018-12-09T22:20:07.258Z,98956.17
2018-12-09T22:22:36.443Z,98952.86
2018-12-09T22:25:06.068Z,98949.35
2018-12-09T22:27:35.344Z,98946.84
2018-12-09T22:30:04.581Z,98953.83
2018-12-09T22:32:33.733Z,98953.53
2018-12-09T22:35:02.873Z,98955.92
2018-12-09T22:37:32.082Z,98959.53
2018-12-09T22:40:01.270Z,98955.72
2018-12-09T22:42:30.437Z,98957.69
2018-12-09T22:44:59.597Z,98961.42
2018-12-09T22:47:28.723Z,98968.32
2018-12-09T22:49:57.874Z,98965.91
2018-12-09T22:52:27.009Z,98973.25
2018-12-09T22:54:56.174Z,98977.16
2018-12-09T22:57:25.302Z,98979.45
2018-12-09T22:59:54.468Z,98984.16
2018-12-09T23:02:28.541Z,98982.35
2018-12-09T23:04:57.733Z,98990.38
2018-12-09T23:07:31.981Z,98982.70
2018-12-09T23:10:01.177Z,98979.00
2018-12-09T23:12:30.327Z,98981.93
2018-12-09T23:14:59.452Z,98994.70
2018-12-09T23:17:28.581Z,98989.34
2018-12-09T23:19:57.713Z,98982.25
2018-12-09T23:22:26.860Z,98979.38
2018-12-09T23:24:55.979Z,98980.35
2018-12-09T23:27:25.089Z,98966.04
2018-12-09T23:29:54.234Z,98969.01
2018-12-09T23:32:23.365Z,98970.17
2018-12-09T23:34:52.490Z,98967.94
2018-12-09T23:37:21.601Z,98968.33
2018-12-09T23:39:50.724Z,98967.10
2018-12-09T23:42:19.884Z,98970.84
2018-12-09T23:44:49.046Z,98967.23
2018-12-09T23:47:18.162Z,98961.98
2018-12-09T23:49:47.288Z,98971.16
2018-12-09T23:52:16.401Z,98974.31
2018-12-09T23:54:45.500Z,98970.45
2018-12-09T23:57:14.614Z,98970.84
2018-12-09T23:59:43.737Z,98971.48
